sensor_id;sensor_type;location;lat;lon;timestamp;P1;durP1;ratioP1;P2;durP2;ratioP2
50773;SDS011;36745;48.544;8.918;2023-07-29T00:01:27;6.68;;;3.63;;
50773;SDS011;36745;48.544;8.918;2023-07-29T00:04:47;5.95;;;3.22;;
50773;SDS011;36745;48.544;8.918;2023-07-29T00:08:06;9.52;;;3.20;;
50773;SDS011;36745;48.544;8.918;2023-07-29T00:11:26;11.05;;;4.40;;
50773;SDS011;36745;48.544;8.918;2023-07-29T00:14:46;11.80;;;3.60;;
50773;SDS011;36745;48.544;8.918;2023-07-29T00:18:06;10.18;;;3.90;;
50773;SDS011;36745;48.544;8.918;2023-07-29T00:21:25;10.55;;;3.80;;
50773;SDS011;36745;48.544;8.918;2023-07-29T00:24:50;7.97;;;3.65;;
50773;SDS011;36745;48.544;8.918;2023-07-29T00:28:11;9.98;;;3.78;;
50773;SDS011;36745;48.544;8.918;2023-07-29T00:31:31;6.05;;;4.20;;
50773;SDS011;36745;48.544;8.918;2023-07-29T00:34:51;7.65;;;3.50;;
50773;SDS011;36745;48.544;8.918;2023-07-29T00:38:11;11.70;;;3.90;;
50773;SDS011;36745;48.544;8.918;2023-07-29T00:41:30;8.40;;;3.90;;
50773;SDS011;36745;48.544;8.918;2023-07-29T00:44:50;9.68;;;3.80;;
50773;SDS011;36745;48.544;8.918;2023-07-29T00:48:10;8.65;;;3.88;;
50773;SDS011;36745;48.544;8.918;2023-07-29T00:51:30;13.60;;;3.75;;
50773;SDS011;36745;48.544;8.918;2023-07-29T00:54:50;8.32;;;4.00;;
50773;SDS011;36745;48.544;8.918;2023-07-29T00:58:10;13.05;;;3.85;;
50773;SDS011;36745;48.544;8.918;2023-07-29T01:01:30;14.07;;;4.50;;
50773;SDS011;36745;48.544;8.918;2023-07-29T01:04:53;10.23;;;3.90;;
50773;SDS011;36745;48.544;8.918;2023-07-29T01:08:30;9.77;;;3.60;;
50773;SDS011;36745;48.544;8.918;2023-07-29T01:19:04;13.85;;;4.10;;
50773;SDS011;36745;48.544;8.918;2023-07-29T01:22:28;10.13;;;4.18;;
50773;SDS011;36745;48.544;8.918;2023-07-29T01:25:50;10.25;;;3.95;;
50773;SDS011;36745;48.544;8.918;2023-07-29T01:29:10;6.55;;;3.72;;
50773;SDS011;36745;48.544;8.918;2023-07-29T01:32:35;20.35;;;4.15;;
50773;SDS011;36745;48.544;8.918;2023-07-29T01:36:02;10.02;;;4.50;;
50773;SDS011;36745;48.544;8.918;2023-07-29T01:39:24;4.85;;;3.67;;
50773;SDS011;36745;48.544;8.918;2023-07-29T01:42:48;7.72;;;3.50;;
50773;SDS011;36745;48.544;8.918;2023-07-29T01:46:09;7.80;;;3.55;;
50773;SDS011;36745;48.544;8.918;2023-07-29T01:49:31;8.35;;;3.83;;
50773;SDS011;36745;48.544;8.918;2023-07-29T01:52:51;13.13;;;3.60;;
50773;SDS011;36745;48.544;8.918;2023-07-29T01:56:11;8.63;;;3.83;;
50773;SDS011;36745;48.544;8.918;2023-07-29T01:59:31;8.32;;;4.03;;
50773;SDS011;36745;48.544;8.918;2023-07-29T02:02:51;7.20;;;4.15;;
50773;SDS011;36745;48.544;8.918;2023-07-29T02:06:10;6.25;;;3.70;;
50773;SDS011;36745;48.544;8.918;2023-07-29T02:09:30;9.15;;;4.10;;
50773;SDS011;36745;48.544;8.918;2023-07-29T02:12:51;10.85;;;4.38;;
50773;SDS011;36745;48.544;8.918;2023-07-29T02:16:11;9.00;;;3.95;;
50773;SDS011;36745;48.544;8.918;2023-07-29T02:19:30;12.60;;;4.53;;
50773;SDS011;36745;48.544;8.918;2023-07-29T02:22:50;4.97;;;4.00;;
50773;SDS011;36745;48.544;8.918;2023-07-29T02:26:10;13.98;;;4.80;;
50773;SDS011;36745;48.544;8.918;2023-07-29T02:29:30;7.18;;;3.97;;
50773;SDS011;36745;48.544;8.918;2023-07-29T02:32:50;10.18;;;3.78;;
50773;SDS011;36745;48.544;8.918;2023-07-29T02:36:11;12.27;;;4.20;;
50773;SDS011;36745;48.544;8.918;2023-07-29T02:39:31;4.75;;;3.55;;
50773;SDS011;36745;48.544;8.918;2023-07-29T02:42:51;7.53;;;3.88;;
50773;SDS011;36745;48.544;8.918;2023-07-29T02:46:10;6.82;;;3.50;;
50773;SDS011;36745;48.544;8.918;2023-07-29T02:49:30;13.45;;;4.32;;
50773;SDS011;36745;48.544;8.918;2023-07-29T02:52:50;7.53;;;3.92;;
50773;SDS011;36745;48.544;8.918;2023-07-29T02:56:11;11.05;;;3.63;;
50773;SDS011;36745;48.544;8.918;2023-07-29T02:59:30;6.53;;;3.70;;
50773;SDS011;36745;48.544;8.918;2023-07-29T03:02:50;7.78;;;3.38;;
50773;SDS011;36745;48.544;8.918;2023-07-29T03:06:11;8.05;;;4.22;;
50773;SDS011;36745;48.544;8.918;2023-07-29T03:09:33;6.22;;;4.03;;
50773;SDS011;36745;48.544;8.918;2023-07-29T03:12:53;13.05;;;4.78;;
50773;SDS011;36745;48.544;8.918;2023-07-29T03:16:14;6.70;;;3.97;;
50773;SDS011;36745;48.544;8.918;2023-07-29T03:19:36;7.65;;;4.32;;
50773;SDS011;36745;48.544;8.918;2023-07-29T03:22:55;10.05;;;3.83;;
50773;SDS011;36745;48.544;8.918;2023-07-29T03:26:15;10.25;;;3.45;;
50773;SDS011;36745;48.544;8.918;2023-07-29T03:29:35;7.68;;;3.65;;
50773;SDS011;36745;48.544;8.918;2023-07-29T03:32:55;8.95;;;3.70;;
50773;SDS011;36745;48.544;8.918;2023-07-29T03:36:15;6.05;;;3.75;;
50773;SDS011;36745;48.544;8.918;2023-07-29T03:39:34;13.52;;;4.20;;
50773;SDS011;36745;48.544;8.918;2023-07-29T03:42:54;3.78;;;3.40;;
50773;SDS011;36745;48.544;8.918;2023-07-29T03:46:14;12.00;;;4.00;;
50773;SDS011;36745;48.544;8.918;2023-07-29T03:49:37;11.25;;;4.43;;
50773;SDS011;36745;48.544;8.918;2023-07-29T03:52:56;6.50;;;4.40;;
50773;SDS011;36745;48.544;8.918;2023-07-29T03:56:16;14.30;;;4.80;;
50773;SDS011;36745;48.544;8.918;2023-07-29T03:59:36;10.70;;;4.40;;
50773;SDS011;36745;48.544;8.918;2023-07-29T04:02:56;11.60;;;4.10;;
50773;SDS011;36745;48.544;8.918;2023-07-29T04:06:16;10.95;;;3.60;;
50773;SDS011;36745;48.544;8.918;2023-07-29T04:09:36;7.50;;;3.85;;
50773;SDS011;36745;48.544;8.918;2023-07-29T04:12:56;10.10;;;4.47;;
50773;SDS011;36745;48.544;8.918;2023-07-29T04:16:15;14.82;;;4.55;;
50773;SDS011;36745;48.544;8.918;2023-07-29T04:19:36;12.20;;;4.40;;
50773;SDS011;36745;48.544;8.918;2023-07-29T04:22:56;11.15;;;5.03;;
50773;SDS011;36745;48.544;8.918;2023-07-29T04:26:15;9.65;;;5.38;;
50773;SDS011;36745;48.544;8.918;2023-07-29T04:29:35;6.55;;;5.43;;
50773;SDS011;36745;48.544;8.918;2023-07-29T04:32:55;9.68;;;4.68;;
50773;SDS011;36745;48.544;8.918;2023-07-29T04:36:15;12.98;;;5.53;;
50773;SDS011;36745;48.544;8.918;2023-07-29T04:39:34;11.57;;;6.28;;
50773;SDS011;36745;48.544;8.918;2023-07-29T04:42:54;11.55;;;6.53;;
50773;SDS011;36745;48.544;8.918;2023-07-29T04:46:14;8.63;;;6.70;;
50773;SDS011;36745;48.544;8.918;2023-07-29T04:49:34;24.77;;;8.85;;
50773;SDS011;36745;48.544;8.918;2023-07-29T04:52:54;16.98;;;7.80;;
50773;SDS011;36745;48.544;8.918;2023-07-29T04:56:13;15.38;;;7.88;;
50773;SDS011;36745;48.544;8.918;2023-07-29T04:59:33;17.05;;;8.15;;
50773;SDS011;36745;48.544;8.918;2023-07-29T05:02:53;14.18;;;7.35;;
50773;SDS011;36745;48.544;8.918;2023-07-29T05:06:13;11.77;;;7.25;;
50773;SDS011;36745;48.544;8.918;2023-07-29T05:09:32;17.77;;;7.60;;
50773;SDS011;36745;48.544;8.918;2023-07-29T05:12:52;21.23;;;8.88;;
50773;SDS011;36745;48.544;8.918;2023-07-29T05:16:12;20.65;;;11.93;;
50773;SDS011;36745;48.544;8.918;2023-07-29T05:19:32;13.40;;;8.07;;
50773;SDS011;36745;48.544;8.918;2023-07-29T05:22:52;18.80;;;7.63;;
50773;SDS011;36745;48.544;8.918;2023-07-29T05:26:11;13.35;;;7.20;;
50773;SDS011;36745;48.544;8.918;2023-07-29T05:29:31;11.23;;;7.47;;
50773;SDS011;36745;48.544;8.918;2023-07-29T05:32:51;11.68;;;7.35;;
50773;SDS011;36745;48.544;8.918;2023-07-29T05:36:11;10.57;;;7.28;;
50773;SDS011;36745;48.544;8.918;2023-07-29T05:39:31;12.15;;;7.20;;
50773;SDS011;36745;48.544;8.918;2023-07-29T05:42:51;17.20;;;7.63;;
50773;SDS011;36745;48.544;8.918;2023-07-29T05:46:11;34.97;;;19.88;;
50773;SDS011;36745;48.544;8.918;2023-07-29T05:49:31;67.68;;;34.63;;
50773;SDS011;36745;48.544;8.918;2023-07-29T05:52:50;37.70;;;24.35;;
50773;SDS011;36745;48.544;8.918;2023-07-29T05:56:10;17.20;;;9.50;;
50773;SDS011;36745;48.544;8.918;2023-07-29T05:59:30;13.68;;;7.88;;
50773;SDS011;36745;48.544;8.918;2023-07-29T06:02:50;11.60;;;7.55;;
50773;SDS011;36745;48.544;8.918;2023-07-29T06:06:09;10.48;;;7.07;;
50773;SDS011;36745;48.544;8.918;2023-07-29T06:09:29;13.48;;;6.80;;
50773;SDS011;36745;48.544;8.918;2023-07-29T06:12:49;11.60;;;6.72;;
50773;SDS011;36745;48.544;8.918;2023-07-29T06:16:09;8.50;;;5.88;;
50773;SDS011;36745;48.544;8.918;2023-07-29T06:19:28;13.07;;;7.00;;
50773;SDS011;36745;48.544;8.918;2023-07-29T06:22:48;14.50;;;8.82;;
50773;SDS011;36745;48.544;8.918;2023-07-29T06:26:08;8.68;;;5.35;;
50773;SDS011;36745;48.544;8.918;2023-07-29T06:29:28;7.85;;;5.30;;
50773;SDS011;36745;48.544;8.918;2023-07-29T06:32:48;9.65;;;5.95;;
50773;SDS011;36745;48.544;8.918;2023-07-29T06:36:07;9.82;;;5.32;;
50773;SDS011;36745;48.544;8.918;2023-07-29T06:39:27;9.82;;;6.97;;
50773;SDS011;36745;48.544;8.918;2023-07-29T06:42:47;15.32;;;8.45;;
50773;SDS011;36745;48.544;8.918;2023-07-29T06:46:07;11.50;;;5.32;;
50773;SDS011;36745;48.544;8.918;2023-07-29T07:06:31;12.52;;;4.80;;
50773;SDS011;36745;48.544;8.918;2023-07-29T07:09:51;11.05;;;6.25;;
50773;SDS011;36745;48.544;8.918;2023-07-29T07:13:11;10.65;;;5.95;;
50773;SDS011;36745;48.544;8.918;2023-07-29T07:16:30;10.38;;;5.72;;
50773;SDS011;36745;48.544;8.918;2023-07-29T07:19:50;9.80;;;5.30;;
50773;SDS011;36745;48.544;8.918;2023-07-29T07:23:10;14.00;;;5.85;;
50773;SDS011;36745;48.544;8.918;2023-07-29T07:26:32;20.45;;;11.80;;
50773;SDS011;36745;48.544;8.918;2023-07-29T07:29:52;18.08;;;10.68;;
50773;SDS011;36745;48.544;8.918;2023-07-29T07:33:12;29.73;;;17.27;;
50773;SDS011;36745;48.544;8.918;2023-07-29T07:36:31;20.38;;;10.85;;
50773;SDS011;36745;48.544;8.918;2023-07-29T07:39:51;7.55;;;5.53;;
50773;SDS011;36745;48.544;8.918;2023-07-29T07:43:11;10.00;;;7.05;;
50773;SDS011;36745;48.544;8.918;2023-07-29T07:46:31;13.18;;;6.50;;
50773;SDS011;36745;48.544;8.918;2023-07-29T07:49:51;5.93;;;4.38;;
50773;SDS011;36745;48.544;8.918;2023-07-29T07:53:10;4.63;;;3.85;;
50773;SDS011;36745;48.544;8.918;2023-07-29T07:56:32;8.02;;;4.97;;
50773;SDS011;36745;48.544;8.918;2023-07-29T07:59:52;7.03;;;4.38;;
50773;SDS011;36745;48.544;8.918;2023-07-29T08:03:11;5.93;;;3.25;;
50773;SDS011;36745;48.544;8.918;2023-07-29T08:06:32;4.75;;;3.10;;
50773;SDS011;36745;48.544;8.918;2023-07-29T08:09:52;6.13;;;3.00;;
50773;SDS011;36745;48.544;8.918;2023-07-29T08:13:12;3.30;;;2.80;;
50773;SDS011;36745;48.544;8.918;2023-07-29T08:16:32;7.22;;;3.00;;
50773;SDS011;36745;48.544;8.918;2023-07-29T08:19:51;3.55;;;3.25;;
50773;SDS011;36745;48.544;8.918;2023-07-29T08:23:11;7.03;;;3.17;;
50773;SDS011;36745;48.544;8.918;2023-07-29T08:26:31;7.47;;;3.25;;
50773;SDS011;36745;48.544;8.918;2023-07-29T08:29:51;3.95;;;3.00;;
50773;SDS011;36745;48.544;8.918;2023-07-29T08:33:10;5.70;;;3.20;;
50773;SDS011;36745;48.544;8.918;2023-07-29T08:36:30;12.32;;;7.07;;
50773;SDS011;36745;48.544;8.918;2023-07-29T08:39:50;10.50;;;5.75;;
50773;SDS011;36745;48.544;8.918;2023-07-29T08:43:12;21.00;;;9.32;;
50773;SDS011;36745;48.544;8.918;2023-07-29T08:46:35;5.73;;;3.27;;
50773;SDS011;36745;48.544;8.918;2023-07-29T08:49:56;4.28;;;2.63;;
50773;SDS011;36745;48.544;8.918;2023-07-29T08:53:17;3.63;;;2.38;;
50773;SDS011;36745;48.544;8.918;2023-07-29T08:56:41;4.82;;;2.75;;
50773;SDS011;36745;48.544;8.918;2023-07-29T09:00:02;2.78;;;2.55;;
50773;SDS011;36745;48.544;8.918;2023-07-29T09:03:22;1.88;;;1.75;;
50773;SDS011;36745;48.544;8.918;2023-07-29T09:06:43;7.90;;;3.83;;
50773;SDS011;36745;48.544;8.918;2023-07-29T09:10:04;3.30;;;2.13;;
50773;SDS011;36745;48.544;8.918;2023-07-29T09:13:24;3.05;;;2.15;;
50773;SDS011;36745;48.544;8.918;2023-07-29T09:16:44;14.65;;;3.10;;
50773;SDS011;36745;48.544;8.918;2023-07-29T09:20:05;3.03;;;2.17;;
50773;SDS011;36745;48.544;8.918;2023-07-29T09:23:37;3.08;;;2.47;;
50773;SDS011;36745;48.544;8.918;2023-07-29T09:26:59;3.50;;;2.88;;
50773;SDS011;36745;48.544;8.918;2023-07-29T09:30:19;5.15;;;2.70;;
50773;SDS011;36745;48.544;8.918;2023-07-29T09:33:39;6.30;;;3.80;;
50773;SDS011;36745;48.544;8.918;2023-07-29T09:36:59;6.85;;;2.90;;
50773;SDS011;36745;48.544;8.918;2023-07-29T09:40:19;2.47;;;1.90;;
50773;SDS011;36745;48.544;8.918;2023-07-29T09:43:39;2.58;;;2.20;;
50773;SDS011;36745;48.544;8.918;2023-07-29T09:46:59;5.63;;;2.40;;
50773;SDS011;36745;48.544;8.918;2023-07-29T09:50:20;5.03;;;2.50;;
50773;SDS011;36745;48.544;8.918;2023-07-29T09:53:46;3.03;;;2.55;;
50773;SDS011;36745;48.544;8.918;2023-07-29T09:57:07;4.15;;;2.35;;
50773;SDS011;36745;48.544;8.918;2023-07-29T10:00:27;5.32;;;2.42;;
50773;SDS011;36745;48.544;8.918;2023-07-29T10:03:48;4.43;;;2.13;;
50773;SDS011;36745;48.544;8.918;2023-07-29T10:07:11;6.40;;;2.47;;
50773;SDS011;36745;48.544;8.918;2023-07-29T10:10:32;3.33;;;2.33;;
50773;SDS011;36745;48.544;8.918;2023-07-29T10:13:52;5.72;;;2.28;;
50773;SDS011;36745;48.544;8.918;2023-07-29T10:17:12;3.75;;;2.08;;
50773;SDS011;36745;48.544;8.918;2023-07-29T10:20:35;3.28;;;2.78;;
50773;SDS011;36745;48.544;8.918;2023-07-29T10:23:54;5.25;;;2.28;;
50773;SDS011;36745;48.544;8.918;2023-07-29T10:27:19;4.05;;;2.22;;
50773;SDS011;36745;48.544;8.918;2023-07-29T10:35:05;5.03;;;2.78;;
50773;SDS011;36745;48.544;8.918;2023-07-29T10:38:26;4.15;;;2.40;;
50773;SDS011;36745;48.544;8.918;2023-07-29T10:41:59;2.50;;;2.30;;
50773;SDS011;36745;48.544;8.918;2023-07-29T10:45:24;3.22;;;2.40;;
50773;SDS011;36745;48.544;8.918;2023-07-29T10:48:44;3.55;;;2.65;;
50773;SDS011;36745;48.544;8.918;2023-07-29T10:52:15;3.38;;;2.50;;
50773;SDS011;36745;48.544;8.918;2023-07-29T10:55:35;3.70;;;2.88;;
50773;SDS011;36745;48.544;8.918;2023-07-29T11:02:37;2.80;;;2.55;;
50773;SDS011;36745;48.544;8.918;2023-07-29T11:05:58;4.60;;;2.63;;
50773;SDS011;36745;48.544;8.918;2023-07-29T11:13:02;4.47;;;2.20;;
50773;SDS011;36745;48.544;8.918;2023-07-29T11:16:21;3.20;;;2.03;;
50773;SDS011;36745;48.544;8.918;2023-07-29T11:19:42;3.08;;;2.35;;
50773;SDS011;36745;48.544;8.918;2023-07-29T11:23:04;3.53;;;2.78;;
50773;SDS011;36745;48.544;8.918;2023-07-29T11:26:25;5.88;;;2.38;;
50773;SDS011;36745;48.544;8.918;2023-07-29T11:29:46;3.40;;;2.25;;
50773;SDS011;36745;48.544;8.918;2023-07-29T11:33:06;3.05;;;2.58;;
50773;SDS011;36745;48.544;8.918;2023-07-29T11:36:26;2.90;;;2.63;;
50773;SDS011;36745;48.544;8.918;2023-07-29T11:39:46;2.60;;;2.40;;
50773;SDS011;36745;48.544;8.918;2023-07-29T11:43:06;2.63;;;2.00;;
50773;SDS011;36745;48.544;8.918;2023-07-29T11:46:26;3.60;;;2.25;;
50773;SDS011;36745;48.544;8.918;2023-07-29T11:49:46;13.13;;;9.85;;
50773;SDS011;36745;48.544;8.918;2023-07-29T11:53:06;7.18;;;3.28;;
50773;SDS011;36745;48.544;8.918;2023-07-29T11:56:26;3.13;;;2.83;;
50773;SDS011;36745;48.544;8.918;2023-07-29T11:59:46;5.10;;;2.80;;
50773;SDS011;36745;48.544;8.918;2023-07-29T12:03:05;2.55;;;2.35;;
50773;SDS011;36745;48.544;8.918;2023-07-29T12:06:27;11.23;;;2.90;;
50773;SDS011;36745;48.544;8.918;2023-07-29T12:09:47;2.17;;;2.00;;
50773;SDS011;36745;48.544;8.918;2023-07-29T12:13:08;3.35;;;3.05;;
50773;SDS011;36745;48.544;8.918;2023-07-29T12:16:28;3.83;;;2.33;;
50773;SDS011;36745;48.544;8.918;2023-07-29T12:19:54;2.40;;;2.10;;
50773;SDS011;36745;48.544;8.918;2023-07-29T12:23:14;4.18;;;2.42;;
50773;SDS011;36745;48.544;8.918;2023-07-29T12:26:35;4.22;;;2.20;;
50773;SDS011;36745;48.544;8.918;2023-07-29T12:29:55;2.47;;;2.17;;
50773;SDS011;36745;48.544;8.918;2023-07-29T12:33:31;3.17;;;2.22;;
50773;SDS011;36745;48.544;8.918;2023-07-29T12:36:52;2.60;;;1.90;;
50773;SDS011;36745;48.544;8.918;2023-07-29T12:40:46;3.30;;;2.20;;
50773;SDS011;36745;48.544;8.918;2023-07-29T12:43:59;3.22;;;2.17;;
50773;SDS011;36745;48.544;8.918;2023-07-29T12:47:19;3.42;;;2.30;;
50773;SDS011;36745;48.544;8.918;2023-07-29T12:50:39;2.40;;;2.20;;
50773;SDS011;36745;48.544;8.918;2023-07-29T12:53:59;3.97;;;2.38;;
50773;SDS011;36745;48.544;8.918;2023-07-29T12:57:19;3.38;;;2.88;;
50773;SDS011;36745;48.544;8.918;2023-07-29T13:00:39;4.97;;;2.85;;
50773;SDS011;36745;48.544;8.918;2023-07-29T13:03:58;3.47;;;2.17;;
50773;SDS011;36745;48.544;8.918;2023-07-29T13:07:18;2.40;;;2.15;;
50773;SDS011;36745;48.544;8.918;2023-07-29T13:10:38;3.00;;;2.33;;
50773;SDS011;36745;48.544;8.918;2023-07-29T13:13:58;3.03;;;2.28;;
50773;SDS011;36745;48.544;8.918;2023-07-29T13:17:18;3.90;;;2.08;;
50773;SDS011;36745;48.544;8.918;2023-07-29T13:20:37;1.90;;;1.80;;
50773;SDS011;36745;48.544;8.918;2023-07-29T13:23:57;2.42;;;2.22;;
50773;SDS011;36745;48.544;8.918;2023-07-29T13:27:17;2.78;;;1.88;;
50773;SDS011;36745;48.544;8.918;2023-07-29T13:30:37;9.73;;;5.80;;
50773;SDS011;36745;48.544;8.918;2023-07-29T13:33:57;2.17;;;1.85;;
50773;SDS011;36745;48.544;8.918;2023-07-29T13:37:17;5.78;;;2.03;;
50773;SDS011;36745;48.544;8.918;2023-07-29T13:40:37;2.22;;;2.03;;
50773;SDS011;36745;48.544;8.918;2023-07-29T13:43:57;1.98;;;1.83;;
50773;SDS011;36745;48.544;8.918;2023-07-29T13:47:16;2.83;;;1.80;;
50773;SDS011;36745;48.544;8.918;2023-07-29T13:50:36;4.00;;;2.13;;
50773;SDS011;36745;48.544;8.918;2023-07-29T13:53:56;4.63;;;1.80;;
50773;SDS011;36745;48.544;8.918;2023-07-29T13:57:16;2.50;;;2.30;;
50773;SDS011;36745;48.544;8.918;2023-07-29T14:00:36;2.08;;;1.85;;
50773;SDS011;36745;48.544;8.918;2023-07-29T14:03:56;2.53;;;2.30;;
50773;SDS011;36745;48.544;8.918;2023-07-29T14:07:15;2.30;;;2.05;;
50773;SDS011;36745;48.544;8.918;2023-07-29T14:10:35;2.90;;;1.85;;
50773;SDS011;36745;48.544;8.918;2023-07-29T14:13:55;2.55;;;2.35;;
50773;SDS011;36745;48.544;8.918;2023-07-29T14:17:15;2.95;;;1.88;;
50773;SDS011;36745;48.544;8.918;2023-07-29T14:20:34;2.53;;;2.30;;
50773;SDS011;36745;48.544;8.918;2023-07-29T14:23:54;2.85;;;2.28;;
50773;SDS011;36745;48.544;8.918;2023-07-29T14:27:14;2.50;;;2.30;;
50773;SDS011;36745;48.544;8.918;2023-07-29T14:30:35;2.38;;;2.05;;
50773;SDS011;36745;48.544;8.918;2023-07-29T14:33:57;2.60;;;2.40;;
50773;SDS011;36745;48.544;8.918;2023-07-29T14:37:17;2.28;;;2.08;;
50773;SDS011;36745;48.544;8.918;2023-07-29T14:40:37;3.35;;;2.10;;
50773;SDS011;36745;48.544;8.918;2023-07-29T14:43:57;2.40;;;2.00;;
50773;SDS011;36745;48.544;8.918;2023-07-29T14:47:17;4.50;;;1.90;;
50773;SDS011;36745;48.544;8.918;2023-07-29T14:50:37;5.45;;;2.10;;
50773;SDS011;36745;48.544;8.918;2023-07-29T14:53:57;4.32;;;2.90;;
50773;SDS011;36745;48.544;8.918;2023-07-29T14:57:16;7.65;;;5.35;;
50773;SDS011;36745;48.544;8.918;2023-07-29T15:00:36;2.88;;;2.40;;
50773;SDS011;36745;48.544;8.918;2023-07-29T15:03:57;2.63;;;2.20;;
50773;SDS011;36745;48.544;8.918;2023-07-29T15:07:17;2.47;;;2.28;;
50773;SDS011;36745;48.544;8.918;2023-07-29T15:10:36;4.13;;;2.00;;
50773;SDS011;36745;48.544;8.918;2023-07-29T15:13:56;2.55;;;2.20;;
50773;SDS011;36745;48.544;8.918;2023-07-29T15:17:16;3.40;;;2.08;;
50773;SDS011;36745;48.544;8.918;2023-07-29T15:20:36;2.88;;;2.20;;
50773;SDS011;36745;48.544;8.918;2023-07-29T15:23:56;3.38;;;2.47;;
50773;SDS011;36745;48.544;8.918;2023-07-29T15:27:15;3.55;;;2.28;;
50773;SDS011;36745;48.544;8.918;2023-07-29T15:30:35;2.65;;;2.05;;
50773;SDS011;36745;48.544;8.918;2023-07-29T15:33:56;2.30;;;2.03;;
50773;SDS011;36745;48.544;8.918;2023-07-29T15:37:16;4.15;;;2.05;;
50773;SDS011;36745;48.544;8.918;2023-07-29T15:40:37;3.28;;;2.20;;
50773;SDS011;36745;48.544;8.918;2023-07-29T15:43:57;2.53;;;2.10;;
50773;SDS011;36745;48.544;8.918;2023-07-29T15:47:19;2.45;;;2.10;;
50773;SDS011;36745;48.544;8.918;2023-07-29T15:50:39;3.80;;;2.00;;
50773;SDS011;36745;48.544;8.918;2023-07-29T15:53:59;4.05;;;2.30;;
50773;SDS011;36745;48.544;8.918;2023-07-29T15:57:18;2.45;;;2.20;;
50773;SDS011;36745;48.544;8.918;2023-07-29T16:00:39;2.70;;;2.13;;
50773;SDS011;36745;48.544;8.918;2023-07-29T16:03:58;2.72;;;1.85;;
50773;SDS011;36745;48.544;8.918;2023-07-29T16:07:18;2.67;;;2.47;;
50773;SDS011;36745;48.544;8.918;2023-07-29T16:10:38;2.30;;;2.10;;
50773;SDS011;36745;48.544;8.918;2023-07-29T16:13:58;3.60;;;2.10;;
50773;SDS011;36745;48.544;8.918;2023-07-29T16:17:18;2.38;;;2.17;;
50773;SDS011;36745;48.544;8.918;2023-07-29T16:20:38;3.22;;;2.50;;
50773;SDS011;36745;48.544;8.918;2023-07-29T16:23:57;3.03;;;2.20;;
50773;SDS011;36745;48.544;8.918;2023-07-29T16:27:18;4.25;;;2.13;;
50773;SDS011;36745;48.544;8.918;2023-07-29T16:30:38;3.90;;;2.45;;
50773;SDS011;36745;48.544;8.918;2023-07-29T16:33:58;2.70;;;2.40;;
50773;SDS011;36745;48.544;8.918;2023-07-29T16:37:17;4.03;;;2.95;;
50773;SDS011;36745;48.544;8.918;2023-07-29T16:40:37;3.35;;;2.30;;
50773;SDS011;36745;48.544;8.918;2023-07-29T16:43:57;5.72;;;2.42;;
50773;SDS011;36745;48.544;8.918;2023-07-29T16:47:17;2.58;;;2.38;;
50773;SDS011;36745;48.544;8.918;2023-07-29T16:50:37;3.58;;;2.88;;
50773;SDS011;36745;48.544;8.918;2023-07-29T16:53:57;3.25;;;2.88;;
50773;SDS011;36745;48.544;8.918;2023-07-29T16:57:16;6.47;;;3.20;;
50773;SDS011;36745;48.544;8.918;2023-07-29T17:00:36;6.65;;;3.42;;
50773;SDS011;36745;48.544;8.918;2023-07-29T17:03:56;6.90;;;3.67;;
50773;SDS011;36745;48.544;8.918;2023-07-29T17:07:16;6.43;;;3.17;;
50773;SDS011;36745;48.544;8.918;2023-07-29T17:10:36;6.30;;;4.00;;
50773;SDS011;36745;48.544;8.918;2023-07-29T17:13:55;5.60;;;3.63;;
50773;SDS011;36745;48.544;8.918;2023-07-29T17:17:15;4.03;;;3.30;;
50773;SDS011;36745;48.544;8.918;2023-07-29T17:20:35;5.97;;;3.55;;
50773;SDS011;36745;48.544;8.918;2023-07-29T17:23:55;5.30;;;3.70;;
50773;SDS011;36745;48.544;8.918;2023-07-29T17:27:15;4.10;;;3.22;;
50773;SDS011;36745;48.544;8.918;2023-07-29T17:30:34;3.42;;;3.10;;
50773;SDS011;36745;48.544;8.918;2023-07-29T17:33:54;5.88;;;3.72;;
50773;SDS011;36745;48.544;8.918;2023-07-29T17:37:14;8.13;;;4.18;;
50773;SDS011;36745;48.544;8.918;2023-07-29T17:40:34;4.28;;;3.50;;
50773;SDS011;36745;48.544;8.918;2023-07-29T17:43:54;7.43;;;4.07;;
50773;SDS011;36745;48.544;8.918;2023-07-29T17:47:14;6.05;;;4.32;;
50773;SDS011;36745;48.544;8.918;2023-07-29T17:50:34;7.90;;;4.03;;
50773;SDS011;36745;48.544;8.918;2023-07-29T17:53:54;4.15;;;3.75;;
50773;SDS011;36745;48.544;8.918;2023-07-29T17:57:14;11.00;;;5.38;;
50773;SDS011;36745;48.544;8.918;2023-07-29T18:00:34;10.48;;;4.97;;
50773;SDS011;36745;48.544;8.918;2023-07-29T18:03:54;5.25;;;4.22;;
50773;SDS011;36745;48.544;8.918;2023-07-29T18:07:13;6.05;;;5.20;;
50773;SDS011;36745;48.544;8.918;2023-07-29T18:10:33;5.95;;;4.00;;
50773;SDS011;36745;48.544;8.918;2023-07-29T18:13:53;5.35;;;4.35;;
50773;SDS011;36745;48.544;8.918;2023-07-29T18:17:13;6.97;;;4.20;;
50773;SDS011;36745;48.544;8.918;2023-07-29T18:20:33;6.45;;;4.60;;
50773;SDS011;36745;48.544;8.918;2023-07-29T18:23:54;5.38;;;4.63;;
50773;SDS011;36745;48.544;8.918;2023-07-29T18:27:14;5.53;;;4.45;;
50773;SDS011;36745;48.544;8.918;2023-07-29T18:30:34;7.00;;;4.72;;
50773;SDS011;36745;48.544;8.918;2023-07-29T18:33:54;7.00;;;5.00;;
50773;SDS011;36745;48.544;8.918;2023-07-29T18:37:14;5.57;;;4.60;;
50773;SDS011;36745;48.544;8.918;2023-07-29T18:40:34;6.07;;;4.47;;
50773;SDS011;36745;48.544;8.918;2023-07-29T18:43:54;8.68;;;4.25;;
50773;SDS011;36745;48.544;8.918;2023-07-29T18:47:16;8.63;;;4.40;;
50773;SDS011;36745;48.544;8.918;2023-07-29T18:50:36;6.53;;;4.80;;
50773;SDS011;36745;48.544;8.918;2023-07-29T18:53:56;4.50;;;4.05;;
50773;SDS011;36745;48.544;8.918;2023-07-29T18:57:16;4.55;;;4.15;;
50773;SDS011;36745;48.544;8.918;2023-07-29T19:00:35;8.25;;;4.68;;
50773;SDS011;36745;48.544;8.918;2023-07-29T19:03:57;6.25;;;4.20;;
50773;SDS011;36745;48.544;8.918;2023-07-29T19:07:18;5.45;;;3.97;;
50773;SDS011;36745;48.544;8.918;2023-07-29T19:10:38;5.10;;;4.68;;
50773;SDS011;36745;48.544;8.918;2023-07-29T19:13:58;9.07;;;5.13;;
50773;SDS011;36745;48.544;8.918;2023-07-29T19:17:18;5.90;;;4.82;;
50773;SDS011;36745;48.544;8.918;2023-07-29T19:20:38;6.93;;;5.55;;
50773;SDS011;36745;48.544;8.918;2023-07-29T19:23:57;7.22;;;5.60;;
50773;SDS011;36745;48.544;8.918;2023-07-29T19:27:18;4.68;;;4.03;;
50773;SDS011;36745;48.544;8.918;2023-07-29T19:30:37;5.43;;;4.35;;
50773;SDS011;36745;48.544;8.918;2023-07-29T19:33:57;9.30;;;4.28;;
50773;SDS011;36745;48.544;8.918;2023-07-29T19:37:17;7.57;;;5.57;;
50773;SDS011;36745;48.544;8.918;2023-07-29T19:40:37;8.05;;;5.50;;
50773;SDS011;36745;48.544;8.918;2023-07-29T19:43:57;9.60;;;6.15;;
50773;SDS011;36745;48.544;8.918;2023-07-29T19:47:17;9.38;;;5.28;;
50773;SDS011;36745;48.544;8.918;2023-07-29T19:50:37;7.15;;;6.45;;
50773;SDS011;36745;48.544;8.918;2023-07-29T19:53:57;8.77;;;6.30;;
50773;SDS011;36745;48.544;8.918;2023-07-29T19:57:17;6.90;;;6.03;;
50773;SDS011;36745;48.544;8.918;2023-07-29T20:00:36;7.82;;;5.20;;
50773;SDS011;36745;48.544;8.918;2023-07-29T20:03:56;6.53;;;5.45;;
50773;SDS011;36745;48.544;8.918;2023-07-29T20:07:16;11.63;;;7.18;;
50773;SDS011;36745;48.544;8.918;2023-07-29T20:10:36;10.13;;;6.55;;
50773;SDS011;36745;48.544;8.918;2023-07-29T20:13:56;9.10;;;5.75;;
50773;SDS011;36745;48.544;8.918;2023-07-29T20:17:15;7.10;;;5.60;;
50773;SDS011;36745;48.544;8.918;2023-07-29T20:20:35;7.82;;;5.80;;
50773;SDS011;36745;48.544;8.918;2023-07-29T20:23:55;7.55;;;5.28;;
50773;SDS011;36745;48.544;8.918;2023-07-29T20:27:15;9.55;;;5.82;;
50773;SDS011;36745;48.544;8.918;2023-07-29T20:30:35;6.88;;;5.88;;
50773;SDS011;36745;48.544;8.918;2023-07-29T20:33:55;10.77;;;6.22;;
50773;SDS011;36745;48.544;8.918;2023-07-29T20:37:14;8.32;;;6.15;;